createdAt,value
2022-08-21T00:00:44.434Z,0.00
2022-08-21T00:01:43.170Z,0.00
2022-08-21T00:02:43.223Z,0.00
2022-08-21T00:03:43.144Z,0.00
2022-08-21T00:04:48.241Z,0.00
2022-08-21T00:05:44.122Z,0.00
2022-08-21T00:06:43.116Z,0.00
2022-08-21T00:07:43.113Z,0.00
2022-08-21T00:08:43.111Z,0.00
2022-08-21T00:09:43.093Z,0.00
2022-08-21T00:10:43.071Z,0.00
2022-08-21T00:11:43.055Z,0.00
2022-08-21T00:12:43.050Z,0.00
2022-08-21T00:13:43.035Z,0.00
2022-08-21T00:14:43.029Z,0.00
2022-08-21T00:15:43.071Z,0.00
2022-08-21T00:16:43.015Z,0.00
2022-08-21T00:17:42.994Z,0.00
2022-08-21T00:18:43.089Z,0.00
2022-08-21T00:19:42.971Z,0.00
2022-08-21T00:20:42.982Z,0.00
2022-08-21T00:21:44.364Z,0.00
2022-08-21T00:22:42.950Z,0.00
2022-08-21T00:23:42.942Z,0.00
2022-08-21T00:24:42.933Z,0.00
2022-08-21T00:25:43.019Z,0.00
2022-08-21T00:26:42.904Z,0.00
2022-08-21T00:27:42.905Z,0.00
2022-08-21T00:28:42.887Z,0.00
2022-08-21T00:29:42.861Z,0.00
2022-08-21T00:30:42.856Z,0.00
2022-08-21T00:31:42.857Z,0.00
2022-08-21T00:32:42.834Z,0.00
2022-08-21T00:33:42.863Z,0.00
2022-08-21T00:34:42.834Z,0.00
2022-08-21T00:35:42.802Z,0.00
2022-08-21T00:36:42.790Z,0.00
2022-08-21T00:37:42.783Z,0.00
2022-08-21T00:38:42.770Z,0.00
2022-08-21T00:39:42.865Z,0.00
2022-08-21T00:40:42.773Z,0.00
2022-08-21T00:41:42.734Z,0.00
2022-08-21T00:42:42.802Z,0.00
2022-08-21T00:43:42.715Z,0.00
2022-08-21T00:44:42.710Z,0.00
2022-08-21T00:45:42.709Z,0.00
2022-08-21T00:46:42.692Z,0.00
2022-08-21T00:47:42.672Z,0.00
2022-08-21T00:48:42.667Z,0.00
2022-08-21T00:49:42.645Z,0.00
2022-08-21T00:50:42.638Z,0.00
2022-08-21T00:51:42.665Z,0.00
2022-08-21T00:52:42.616Z,0.00
2022-08-21T00:53:42.609Z,0.00
2022-08-21T00:54:44.578Z,0.00
2022-08-21T00:55:42.594Z,0.00
2022-08-21T00:56:42.586Z,0.00
2022-08-21T00:57:42.567Z,0.00
2022-08-21T00:58:42.561Z,0.00
2022-08-21T00:59:42.541Z,0.00
2022-08-21T01:00:42.654Z,0.00
2022-08-21T01:01:42.528Z,0.00
2022-08-21T01:02:42.511Z,0.00
2022-08-21T01:03:44.099Z,0.00
2022-08-21T01:04:42.512Z,0.00
2022-08-21T01:05:42.480Z,0.00
2022-08-21T01:06:42.479Z,0.00
2022-08-21T01:07:42.481Z,0.00
2022-08-21T01:08:46.682Z,0.00
2022-08-21T01:09:42.437Z,0.00
2022-08-21T01:10:42.473Z,0.00
2022-08-21T01:11:42.410Z,0.00
2022-08-21T01:12:42.419Z,0.00
2022-08-21T01:13:42.391Z,0.00
2022-08-21T01:14:42.380Z,0.00
2022-08-21T01:15:42.373Z,0.00
2022-08-21T01:16:42.423Z,0.00
2022-08-21T01:17:42.349Z,0.00
2022-08-21T01:18:42.351Z,0.00
2022-08-21T01:19:42.335Z,0.00
2022-08-21T01:20:42.314Z,0.00
2022-08-21T01:21:42.301Z,0.00
2022-08-21T01:22:42.296Z,0.00
2022-08-21T01:23:42.381Z,0.00
2022-08-21T01:24:42.292Z,0.00
2022-08-21T01:25:42.264Z,0.00
2022-08-21T01:26:42.253Z,0.00
2022-08-21T01:27:42.235Z,0.00
2022-08-21T01:28:42.227Z,0.00
2022-08-21T01:29:42.269Z,0.00
2022-08-21T01:30:42.226Z,0.00
2022-08-21T01:31:42.215Z,0.00
2022-08-21T01:32:42.186Z,0.00
2022-08-21T01:33:42.177Z,0.00
2022-08-21T01:34:42.164Z,0.00
2022-08-21T01:35:42.298Z,0.00
2022-08-21T01:36:42.145Z,0.00
2022-08-21T01:37:42.131Z,0.00
2022-08-21T01:38:42.122Z,0.00
2022-08-21T01:39:42.136Z,0.00
2022-08-21T01:40:42.103Z,0.00
2022-08-21T01:41:42.220Z,0.00
2022-08-21T01:42:42.084Z,0.00
2022-08-21T01:43:42.070Z,0.00
2022-08-21T01:44:42.059Z,0.00
2022-08-21T01:45:42.043Z,0.00
2022-08-21T01:46:42.037Z,0.00
2022-08-21T01:47:42.096Z,0.00
2022-08-21T01:48:42.016Z,0.00
2022-08-21T01:49:41.998Z,0.00
2022-08-21T01:50:41.989Z,0.00
2022-08-21T01:51:41.985Z,0.00
2022-08-21T01:52:41.968Z,0.00
2022-08-21T01:53:42.010Z,0.00
2022-08-21T01:54:41.962Z,0.00
2022-08-21T01:55:41.939Z,0.00
2022-08-21T01:56:41.933Z,0.00
2022-08-21T01:57:41.928Z,0.00
2022-08-21T01:58:42.014Z,0.00
2022-08-21T01:59:41.948Z,0.00
2022-08-21T02:00:41.937Z,0.00
2022-08-21T02:01:41.871Z,0.00
2022-08-21T02:02:41.868Z,0.00
2022-08-21T02:03:41.851Z,0.00
2022-08-21T02:04:41.839Z,0.00
2022-08-21T02:05:41.875Z,0.00
2022-08-21T02:06:41.819Z,0.00
2022-08-21T02:07:41.806Z,0.00
2022-08-21T02:08:41.817Z,0.00
2022-08-21T02:09:41.784Z,0.00
2022-08-21T02:10:41.775Z,0.00
2022-08-21T02:11:42.813Z,0.00
2022-08-21T02:12:41.754Z,0.00
2022-08-21T02:13:41.759Z,0.00
2022-08-21T02:14:41.732Z,0.00
2022-08-21T02:15:41.722Z,0.00
2022-08-21T02:16:41.726Z,0.00
2022-08-21T02:17:41.727Z,0.00
2022-08-21T02:18:41.707Z,0.00
2022-08-21T02:19:41.680Z,0.00
2022-08-21T02:20:41.676Z,0.00
2022-08-21T02:21:41.661Z,0.00
2022-08-21T02:22:41.664Z,0.00
2022-08-21T02:23:41.641Z,0.00
2022-08-21T02:24:53.839Z,0.00
2022-08-21T02:25:42.610Z,0.00
2022-08-21T02:26:41.606Z,0.00
2022-08-21T02:27:41.595Z,0.00
2022-08-21T02:28:41.595Z,0.00
2022-08-21T02:29:41.589Z,0.00
2022-08-21T02:30:41.564Z,0.00
2022-08-21T02:31:41.548Z,0.00
2022-08-21T02:32:41.544Z,0.00
2022-08-21T02:33:41.544Z,0.00
2022-08-21T02:34:41.518Z,0.00
2022-08-21T02:35:41.513Z,0.00
2022-08-21T02:36:41.495Z,0.00
2022-08-21T02:37:41.487Z,0.00
2022-08-21T02:38:41.476Z,0.00
2022-08-21T02:39:41.528Z,0.00
2022-08-21T02:40:43.819Z,0.00
2022-08-21T02:41:42.462Z,0.00
2022-08-21T02:42:41.429Z,0.00
2022-08-21T02:43:41.434Z,0.00
2022-08-21T02:44:41.410Z,0.00
2022-08-21T02:45:41.411Z,0.00
2022-08-21T02:46:41.416Z,0.00
2022-08-21T02:47:41.409Z,0.00
2022-08-21T02:48:41.370Z,0.00
2022-08-21T02:49:41.357Z,0.00
2022-08-21T02:50:41.379Z,0.00
2022-08-21T02:51:41.368Z,0.00
2022-08-21T02:52:41.349Z,0.00
2022-08-21T02:53:41.347Z,0.00
2022-08-21T02:54:41.306Z,0.00
2022-08-21T02:55:41.290Z,0.00
2022-08-21T02:56:41.303Z,0.00
2022-08-21T02:57:41.273Z,0.00
2022-08-21T02:58:41.269Z,0.00
2022-08-21T02:59:41.314Z,0.00
2022-08-21T03:00:41.238Z,0.00
2022-08-21T03:01:41.283Z,0.00
2022-08-21T03:02:41.229Z,0.00
2022-08-21T03:03:41.210Z,0.00
2022-08-21T03:04:45.951Z,0.00
2022-08-21T03:05:42.232Z,0.00
2022-08-21T03:06:41.179Z,0.00
2022-08-21T03:07:41.171Z,0.00
2022-08-21T03:08:41.161Z,0.00
2022-08-21T03:09:55.875Z,0.00
2022-08-21T03:10:42.135Z,0.00
2022-08-21T03:11:41.183Z,0.00
2022-08-21T03:12:41.112Z,0.00
2022-08-21T03:13:41.109Z,0.00
2022-08-21T03:14:41.139Z,0.00
2022-08-21T03:15:41.097Z,0.00
2022-08-21T03:16:41.064Z,0.00
2022-08-21T03:17:41.090Z,0.00
2022-08-21T03:18:41.049Z,0.00
2022-08-21T03:19:41.053Z,0.00
2022-08-21T03:20:41.161Z,0.00
2022-08-21T03:21:41.009Z,0.00
2022-08-21T03:22:41.006Z,0.00
2022-08-21T03:23:40.995Z,0.00
2022-08-21T03:24:44.146Z,0.00
2022-08-21T03:25:41.219Z,0.00
2022-08-21T03:26:40.960Z,0.00
2022-08-21T03:27:40.951Z,0.00
2022-08-21T03:28:40.934Z,0.00
2022-08-21T03:29:40.922Z,0.00
2022-08-21T03:30:40.954Z,0.00
2022-08-21T03:31:40.903Z,0.00
2022-08-21T03:32:40.891Z,0.00
2022-08-21T03:33:40.893Z,0.00
2022-08-21T03:34:40.869Z,0.00
2022-08-21T03:35:40.858Z,0.00
2022-08-21T03:36:40.897Z,0.00
2022-08-21T03:37:40.843Z,0.00
2022-08-21T03:38:40.832Z,0.00
2022-08-21T03:39:40.883Z,0.00
2022-08-21T03:40:40.816Z,0.00
2022-08-21T03:41:40.797Z,0.00
2022-08-21T03:42:40.828Z,0.00
2022-08-21T03:43:40.771Z,0.00
2022-08-21T03:44:40.763Z,0.00
2022-08-21T03:45:40.755Z,0.00
2022-08-21T03:46:40.757Z,0.00
2022-08-21T03:47:40.731Z,0.00
2022-08-21T03:48:40.760Z,0.00
2022-08-21T03:49:40.708Z,0.00
2022-08-21T03:50:41.309Z,0.00
2022-08-21T03:51:40.695Z,0.00
2022-08-21T03:52:40.688Z,0.00
2022-08-21T03:53:40.671Z,0.00
2022-08-21T03:54:40.704Z,0.00
2022-08-21T03:55:40.669Z,0.00
2022-08-21T03:56:40.632Z,0.00
2022-08-21T03:57:40.629Z,0.00
2022-08-21T03:58:40.616Z,0.00
2022-08-21T03:59:40.614Z,0.00
2022-08-21T04:00:40.621Z,0.00
2022-08-21T04:01:40.622Z,0.00
2022-08-21T04:02:40.574Z,0.00
2022-08-21T04:03:40.559Z,0.00
2022-08-21T04:04:40.550Z,0.00
2022-08-21T04:05:40.548Z,0.00
2022-08-21T04:06:40.554Z,0.00
2022-08-21T04:07:40.526Z,0.00
2022-08-21T04:08:40.516Z,0.00
2022-08-21T04:09:40.501Z,0.00
2022-08-21T04:10:40.484Z,0.00
2022-08-21T04:11:40.499Z,0.00
2022-08-21T04:12:40.474Z,0.00
2022-08-21T04:13:44.385Z,0.00
2022-08-21T04:14:40.436Z,0.00
2022-08-21T04:15:40.427Z,0.00
2022-08-21T04:16:40.430Z,0.00
2022-08-21T04:17:40.431Z,0.00
2022-08-21T04:18:40.476Z,0.00
2022-08-21T04:19:40.386Z,0.00
2022-08-21T04:20:40.371Z,0.00
2022-08-21T04:21:40.382Z,5.62
2022-08-21T04:22:40.354Z,5.62
2022-08-21T04:23:40.478Z,5.62
2022-08-21T04:24:40.333Z,5.62
2022-08-21T04:25:40.347Z,5.62
2022-08-21T04:26:40.327Z,5.62
2022-08-21T04:27:40.305Z,5.62
2022-08-21T04:28:40.285Z,11.25
2022-08-21T04:29:40.324Z,11.25
2022-08-21T04:30:40.296Z,11.25
2022-08-21T04:31:40.253Z,11.25
2022-08-21T04:32:40.256Z,11.25
2022-08-21T04:33:40.231Z,16.88
2022-08-21T04:34:40.219Z,16.88
2022-08-21T04:35:40.215Z,16.88
2022-08-21T04:36:40.213Z,16.88
2022-08-21T04:37:41.571Z,22.50
2022-08-21T04:38:40.194Z,22.50
2022-08-21T04:39:40.201Z,22.50
2022-08-21T04:40:40.157Z,22.50
2022-08-21T04:41:40.150Z,22.50
2022-08-21T04:42:40.132Z,28.12
2022-08-21T04:43:40.146Z,28.12
2022-08-21T04:44:40.129Z,28.12
2022-08-21T04:45:40.101Z,28.12
2022-08-21T04:46:40.085Z,33.75
2022-08-21T04:47:52.330Z,33.75
2022-08-21T04:48:41.078Z,33.75
2022-08-21T04:49:40.075Z,33.75
2022-08-21T04:50:40.059Z,39.38
2022-08-21T04:51:40.051Z,39.38
2022-08-21T04:52:40.026Z,39.38
2022-08-21T04:53:40.010Z,39.38
2022-08-21T04:54:39.998Z,39.38
2022-08-21T04:55:40.028Z,45.00
2022-08-21T04:56:39.994Z,45.00
2022-08-21T04:57:48.706Z,45.00
2022-08-21T04:58:40.951Z,45.00
2022-08-21T04:59:39.943Z,50.62
2022-08-21T05:00:39.930Z,50.62
2022-08-21T05:01:39.979Z,50.62
2022-08-21T05:02:39.907Z,50.62
2022-08-21T05:03:39.894Z,50.62
2022-08-21T05:04:39.946Z,56.25
2022-08-21T05:05:39.872Z,56.25
2022-08-21T05:06:39.873Z,56.25
2022-08-21T05:07:41.892Z,56.25
2022-08-21T05:08:39.842Z,61.88
2022-08-21T05:09:39.829Z,61.88
2022-08-21T05:10:39.815Z,61.88
2022-08-21T05:11:39.806Z,61.88
2022-08-21T05:12:39.803Z,61.88
2022-08-21T05:13:39.858Z,67.50
2022-08-21T05:14:39.774Z,67.50
2022-08-21T05:15:39.766Z,67.50
2022-08-21T05:16:39.747Z,67.50
2022-08-21T05:17:39.742Z,67.50
2022-08-21T05:18:39.738Z,73.12
2022-08-21T05:19:39.746Z,73.12
2022-08-21T05:20:39.704Z,73.12
2022-08-21T05:21:39.698Z,73.12
2022-08-21T05:22:39.700Z,106.88
2022-08-21T05:23:39.684Z,213.75
2022-08-21T05:24:39.658Z,309.38
2022-08-21T05:25:39.696Z,365.62
2022-08-21T05:26:45.579Z,405.00
2022-08-21T05:27:40.626Z,410.62
2022-08-21T05:28:39.620Z,405.00
2022-08-21T05:29:39.717Z,393.75
2022-08-21T05:30:39.600Z,393.75
2022-08-21T05:31:39.593Z,382.50
2022-08-21T05:32:39.571Z,365.62
2022-08-21T05:33:39.564Z,376.88
2022-08-21T05:34:39.550Z,399.38
2022-08-21T05:35:39.560Z,410.62
2022-08-21T05:36:39.532Z,405.00
2022-08-21T05:37:39.567Z,410.62
2022-08-21T05:38:39.509Z,433.12
2022-08-21T05:40:04.733Z,444.38
2022-08-21T05:40:40.503Z,450.00
2022-08-21T05:41:39.477Z,489.38
2022-08-21T05:42:39.465Z,495.00
2022-08-21T05:43:39.474Z,500.62
2022-08-21T05:44:39.443Z,551.25
2022-08-21T05:45:43.383Z,528.75
2022-08-21T05:46:39.424Z,500.62
2022-08-21T05:47:39.422Z,641.25
2022-08-21T05:48:39.409Z,630.00
2022-08-21T05:49:39.392Z,613.12
2022-08-21T05:50:39.382Z,753.75
2022-08-21T05:51:39.435Z,646.88
2022-08-21T05:52:39.358Z,691.88
2022-08-21T05:53:39.344Z,686.25
2022-08-21T05:54:39.380Z,714.38
2022-08-21T05:55:44.434Z,736.88
2022-08-21T05:56:40.321Z,725.62
2022-08-21T05:57:39.338Z,714.38
2022-08-21T05:58:39.302Z,770.62
2022-08-21T05:59:39.290Z,781.88
2022-08-21T06:00:39.268Z,742.50
2022-08-21T06:01:39.292Z,736.88
2022-08-21T06:02:39.271Z,731.25
2022-08-21T06:03:39.239Z,776.25
2022-08-21T06:04:39.244Z,742.50
2022-08-21T06:05:39.228Z,787.50
2022-08-21T06:06:39.202Z,753.75
2022-08-21T06:07:39.201Z,815.62
2022-08-21T06:08:39.226Z,781.88
2022-08-21T06:09:39.176Z,703.12
2022-08-21T06:10:39.221Z,736.88
2022-08-21T06:11:39.158Z,787.50
2022-08-21T06:12:39.139Z,815.62
2022-08-21T06:13:39.138Z,781.88
2022-08-21T06:14:39.167Z,753.75
2022-08-21T06:15:39.122Z,793.12
2022-08-21T06:16:39.110Z,832.50
2022-08-21T06:17:39.090Z,855.00
2022-08-21T06:18:39.076Z,984.38
2022-08-21T06:19:39.065Z,922.50
2022-08-21T06:20:39.097Z,804.38
2022-08-21T06:21:39.063Z,798.75
2022-08-21T06:22:39.041Z,804.38
2022-08-21T06:23:39.028Z,871.88
2022-08-21T06:24:39.013Z,945.00
2022-08-21T06:25:39.004Z,1012.50
2022-08-21T06:26:39.037Z,1068.75
2022-08-21T06:27:38.980Z,1023.75
2022-08-21T06:28:38.979Z,1006.88
2022-08-21T06:29:44.230Z,1018.12
2022-08-21T06:30:39.952Z,1080.00
2022-08-21T06:31:38.937Z,1102.50
2022-08-21T06:32:39.035Z,1153.12
2022-08-21T06:33:38.913Z,1051.88
2022-08-21T06:34:38.903Z,1012.50
2022-08-21T06:35:41.421Z,1057.50
2022-08-21T06:36:38.880Z,1113.75
2022-08-21T06:37:38.873Z,1068.75
2022-08-21T06:38:38.895Z,1130.62
2022-08-21T06:39:43.270Z,1243.12
2022-08-21T06:40:44.854Z,1192.50
2022-08-21T06:41:39.835Z,1254.38
2022-08-21T06:42:38.870Z,1203.75
2022-08-21T06:43:39.683Z,1113.75
2022-08-21T06:44:38.817Z,1136.25
2022-08-21T06:45:38.791Z,1125.00
2022-08-21T06:46:38.783Z,1226.25
2022-08-21T06:47:38.762Z,1288.12
2022-08-21T06:48:38.755Z,1243.12
2022-08-21T06:49:38.754Z,1293.75
2022-08-21T06:50:38.768Z,1288.12
2022-08-21T06:51:38.725Z,1254.38
2022-08-21T06:52:38.710Z,1305.00
2022-08-21T06:53:38.701Z,1496.25
2022-08-21T06:54:38.686Z,1417.50
2022-08-21T06:55:38.689Z,1428.75
2022-08-21T06:56:38.698Z,1395.00
2022-08-21T06:57:38.666Z,1366.88
2022-08-21T06:58:38.647Z,1400.62
2022-08-21T06:59:38.641Z,1395.00
2022-08-21T07:00:38.628Z,1276.88
2022-08-21T07:01:38.721Z,1299.38
2022-08-21T07:02:38.625Z,1406.25
2022-08-21T07:03:38.595Z,1423.12
2022-08-21T07:04:38.578Z,1378.12
2022-08-21T07:05:38.571Z,1361.25
2022-08-21T07:06:38.570Z,1378.12
2022-08-21T07:07:38.560Z,1406.25
2022-08-21T07:08:38.555Z,1440.00
2022-08-21T07:09:38.526Z,1485.00
2022-08-21T07:10:38.511Z,1513.12
2022-08-21T07:11:42.401Z,1423.12
2022-08-21T07:12:39.504Z,1355.62
2022-08-21T07:13:38.487Z,1541.25
2022-08-21T07:14:38.493Z,1591.88
2022-08-21T07:15:38.470Z,1546.88
2022-08-21T07:16:38.449Z,1479.38
2022-08-21T07:17:38.440Z,1507.50
2022-08-21T07:18:38.437Z,1501.88
2022-08-21T07:19:38.420Z,1591.88
2022-08-21T07:20:38.413Z,1659.38
2022-08-21T07:21:38.452Z,1563.75
2022-08-21T07:22:38.381Z,1445.62
2022-08-21T07:23:38.389Z,1479.38
2022-08-21T07:24:38.394Z,1665.00
2022-08-21T07:25:38.358Z,1788.75
2022-08-21T07:26:38.338Z,1552.50
2022-08-21T07:27:38.350Z,1456.88
2022-08-21T07:28:38.333Z,1575.00
2022-08-21T07:29:38.311Z,1721.25
2022-08-21T07:30:38.304Z,1738.12
2022-08-21T07:31:38.331Z,1580.62
2022-08-21T07:32:38.299Z,1659.38
2022-08-21T07:33:38.276Z,1783.12
2022-08-21T07:34:38.262Z,1816.88
2022-08-21T07:35:38.313Z,1738.12
2022-08-21T07:36:38.232Z,1636.88
2022-08-21T07:37:38.218Z,1636.88
2022-08-21T07:38:38.255Z,1676.25
2022-08-21T07:39:38.225Z,1681.88
2022-08-21T07:40:38.187Z,1659.38
2022-08-21T07:41:38.290Z,1749.38
2022-08-21T07:42:38.165Z,1794.38
2022-08-21T07:43:38.153Z,1839.38
2022-08-21T07:44:39.164Z,2109.38
2022-08-21T07:45:38.130Z,1968.75
2022-08-21T07:46:38.117Z,1845.00
2022-08-21T07:47:42.140Z,2075.62
2022-08-21T07:48:38.099Z,1856.25
2022-08-21T07:49:38.085Z,1890.00
2022-08-21T07:50:38.093Z,2047.50
2022-08-21T07:51:38.069Z,1873.12
2022-08-21T07:52:38.059Z,2025.00
2022-08-21T07:53:38.042Z,2244.38
2022-08-21T07:54:38.032Z,1957.50
2022-08-21T07:55:38.022Z,1884.38
2022-08-21T07:56:38.024Z,1929.38
2022-08-21T07:57:38.014Z,1890.00
2022-08-21T07:58:38.104Z,2041.88
2022-08-21T07:59:37.979Z,1912.50
2022-08-21T08:00:37.963Z,1681.88
2022-08-21T08:01:38.009Z,1766.25
2022-08-21T08:02:37.983Z,1822.50
2022-08-21T08:03:37.930Z,1794.38
2022-08-21T08:04:37.932Z,2019.38
2022-08-21T08:05:38.940Z,2025.00
2022-08-21T08:06:37.900Z,2008.12
2022-08-21T08:07:37.895Z,2098.12
2022-08-21T08:08:37.926Z,2188.12
2022-08-21T08:09:37.872Z,2165.62
2022-08-21T08:10:37.872Z,2064.38
2022-08-21T08:11:37.852Z,1906.88
2022-08-21T08:12:37.840Z,1957.50
2022-08-21T08:13:37.916Z,1873.12
2022-08-21T08:14:37.822Z,1878.75
2022-08-21T08:15:37.844Z,2008.12
2022-08-21T08:16:37.800Z,2137.50
2022-08-21T08:17:37.783Z,2103.75
2022-08-21T08:18:37.769Z,2120.62
2022-08-21T08:19:37.793Z,2103.75
2022-08-21T08:20:37.773Z,2115.00
2022-08-21T08:21:37.735Z,2025.00
2022-08-21T08:22:37.743Z,1929.38
2022-08-21T08:23:37.713Z,2041.88
2022-08-21T08:24:37.712Z,2036.25
2022-08-21T08:25:37.694Z,1985.62
2022-08-21T08:26:37.734Z,2041.88
2022-08-21T08:27:37.678Z,1963.12
2022-08-21T08:28:37.675Z,1856.25
2022-08-21T08:29:37.652Z,1923.75
2022-08-21T08:30:37.647Z,1957.50
2022-08-21T08:31:37.633Z,1980.00
2022-08-21T08:32:37.646Z,2092.50
2022-08-21T08:33:37.653Z,2205.00
2022-08-21T08:34:37.596Z,2255.62
2022-08-21T08:35:39.066Z,2238.75
2022-08-21T08:36:37.588Z,2205.00
2022-08-21T08:37:37.589Z,2401.88
2022-08-21T08:38:37.562Z,2233.12
2022-08-21T08:39:37.610Z,2115.00
2022-08-21T08:40:37.568Z,2103.75
2022-08-21T08:41:37.529Z,2221.88
2022-08-21T08:42:37.520Z,2424.38
2022-08-21T08:43:37.528Z,2345.62
2022-08-21T08:44:37.515Z,2413.12
2022-08-21T08:45:37.475Z,2576.25
2022-08-21T08:46:37.468Z,2255.62
2022-08-21T08:47:37.466Z,2036.25
2022-08-21T08:48:37.480Z,2092.50
2022-08-21T08:49:37.449Z,2227.50
2022-08-21T08:50:37.440Z,2520.00
2022-08-21T08:51:37.418Z,2733.75
2022-08-21T08:52:37.411Z,2486.25
2022-08-21T08:53:37.400Z,2176.88
2022-08-21T08:54:37.408Z,2317.50
2022-08-21T08:55:37.387Z,2368.12
2022-08-21T08:56:37.364Z,2385.00
2022-08-21T08:57:37.458Z,2413.12
2022-08-21T08:58:37.353Z,2542.50
2022-08-21T08:59:37.327Z,2587.50
2022-08-21T09:00:37.343Z,2463.75
2022-08-21T09:01:39.228Z,2289.38
2022-08-21T09:02:37.294Z,2244.38
2022-08-21T09:03:37.297Z,2205.00
2022-08-21T09:04:37.290Z,2182.50
2022-08-21T09:05:37.305Z,2368.12
2022-08-21T09:06:37.258Z,2328.75
2022-08-21T09:07:37.258Z,2306.25
2022-08-21T09:08:37.235Z,2452.50
2022-08-21T09:09:37.223Z,2401.88
2022-08-21T09:10:37.213Z,2351.25
2022-08-21T09:11:37.240Z,2103.75
2022-08-21T09:12:37.189Z,2379.38
2022-08-21T09:13:38.734Z,2345.62
2022-08-21T09:14:37.174Z,2120.62
2022-08-21T09:15:37.155Z,2216.25
2022-08-21T09:16:37.143Z,2272.50
2022-08-21T09:17:37.177Z,2373.75
2022-08-21T09:18:37.118Z,2497.50
2022-08-21T09:19:37.246Z,2666.25
2022-08-21T09:20:37.098Z,2778.75
2022-08-21T09:21:37.094Z,2632.50
2022-08-21T09:22:37.082Z,2441.25
2022-08-21T09:23:37.069Z,2390.62
2022-08-21T09:24:37.085Z,2373.75
2022-08-21T09:25:37.055Z,2413.12
2022-08-21T09:26:37.031Z,2728.12
2022-08-21T09:27:37.043Z,2615.62
2022-08-21T09:28:37.020Z,2610.00
2022-08-21T09:29:37.011Z,2604.38
2022-08-21T09:30:37.037Z,2790.00
2022-08-21T09:31:36.999Z,3082.50
2022-08-21T09:32:38.200Z,2913.75
2022-08-21T09:33:36.958Z,2745.00
2022-08-21T09:34:36.949Z,2784.38
2022-08-21T09:35:36.934Z,2750.62
2022-08-21T09:36:36.938Z,2649.38
2022-08-21T09:37:36.967Z,2790.00
2022-08-21T09:38:36.916Z,2863.12
2022-08-21T09:39:40.183Z,2913.75
2022-08-21T09:40:37.128Z,3020.62
2022-08-21T09:41:36.970Z,2683.12
2022-08-21T09:42:36.861Z,2430.00
2022-08-21T09:43:36.865Z,2480.62
2022-08-21T09:44:36.879Z,2542.50
2022-08-21T09:45:36.844Z,2536.88
2022-08-21T09:46:36.818Z,2446.88
2022-08-21T09:47:36.804Z,2576.25
2022-08-21T09:48:36.791Z,2446.88
2022-08-21T09:49:36.806Z,2587.50
2022-08-21T09:50:36.773Z,2733.75
2022-08-21T09:51:36.807Z,2913.75
2022-08-21T09:52:36.748Z,2621.25
2022-08-21T09:53:36.741Z,1175.62
2022-08-21T09:54:36.747Z,2548.12
2022-08-21T09:55:36.723Z,2576.25
2022-08-21T09:56:36.708Z,2745.00
2022-08-21T09:57:36.727Z,2795.62
2022-08-21T09:58:36.686Z,2711.25
2022-08-21T09:59:37.367Z,2666.25
2022-08-21T10:00:36.703Z,2840.62
2022-08-21T10:01:36.779Z,3307.50
2022-08-21T10:02:36.645Z,3234.38
2022-08-21T10:03:36.719Z,3037.50
2022-08-21T10:04:36.629Z,2598.75
2022-08-21T10:05:36.609Z,2379.38
2022-08-21T10:06:36.598Z,2351.25
2022-08-21T10:07:36.721Z,2356.88
2022-08-21T10:08:36.584Z,2626.88
2022-08-21T10:09:36.566Z,3054.38
2022-08-21T10:10:36.559Z,2936.25
2022-08-21T10:11:36.541Z,2739.38
2022-08-21T10:12:36.534Z,2621.25
2022-08-21T10:13:36.539Z,2655.00
2022-08-21T10:14:36.951Z,2767.50
2022-08-21T10:15:36.500Z,2688.75
2022-08-21T10:16:36.515Z,2610.00
2022-08-21T10:17:36.495Z,2885.62
2022-08-21T10:18:36.470Z,3178.12
2022-08-21T10:19:36.465Z,3150.00
2022-08-21T10:20:36.450Z,2975.62
2022-08-21T10:21:36.441Z,2992.50
2022-08-21T10:22:36.589Z,2970.00
2022-08-21T10:23:36.415Z,2745.00
2022-08-21T10:24:36.415Z,1029.38
2022-08-21T10:25:36.417Z,759.38
2022-08-21T10:26:36.380Z,838.12
2022-08-21T10:27:36.379Z,2767.50
2022-08-21T10:28:36.376Z,2981.25
2022-08-21T10:29:36.354Z,2323.12
2022-08-21T10:30:36.372Z,3003.75
2022-08-21T10:31:36.332Z,3369.38
2022-08-21T10:32:36.321Z,3015.00
2022-08-21T10:33:36.318Z,1653.75
2022-08-21T10:34:36.314Z,3189.38
2022-08-21T10:35:36.294Z,984.38
2022-08-21T10:36:36.316Z,691.88
2022-08-21T10:37:36.278Z,680.62
2022-08-21T10:38:52.774Z,990.00
2022-08-21T10:39:37.289Z,821.25
2022-08-21T10:40:36.259Z,1203.75
2022-08-21T10:41:36.243Z,3470.62
2022-08-21T10:42:36.226Z,641.25
2022-08-21T10:43:36.528Z,596.25
2022-08-21T10:44:36.275Z,573.75
2022-08-21T10:45:36.228Z,579.38
2022-08-21T10:46:36.190Z,573.75
2022-08-21T10:47:36.172Z,585.00
2022-08-21T10:48:36.152Z,1102.50
2022-08-21T10:49:36.155Z,1580.62
2022-08-21T10:50:36.226Z,3155.62
2022-08-21T10:51:36.128Z,3172.50
2022-08-21T10:52:36.106Z,1659.38
2022-08-21T10:53:36.113Z,1867.50
2022-08-21T10:54:36.091Z,3043.12
2022-08-21T10:55:36.089Z,1833.75
2022-08-21T10:56:36.064Z,2739.38
2022-08-21T10:57:36.065Z,3133.12
2022-08-21T10:58:36.074Z,2846.25
2022-08-21T10:59:38.700Z,2407.50
2022-08-21T11:00:36.113Z,905.62
2022-08-21T11:01:36.104Z,731.25
2022-08-21T11:02:35.996Z,1395.00
2022-08-21T11:03:35.988Z,635.62
2022-08-21T11:04:46.337Z,691.88
2022-08-21T11:05:36.980Z,1372.50
2022-08-21T11:06:35.965Z,1805.62
2022-08-21T11:07:35.964Z,2632.50
2022-08-21T11:08:35.981Z,2835.00
2022-08-21T11:09:35.955Z,2756.25
2022-08-21T11:10:35.918Z,2666.25
2022-08-21T11:11:36.384Z,2463.75
2022-08-21T11:12:35.894Z,2621.25
2022-08-21T11:13:35.975Z,3133.12
2022-08-21T11:14:35.873Z,590.62
2022-08-21T11:15:35.868Z,618.75
2022-08-21T11:16:35.859Z,2857.50
2022-08-21T11:17:35.839Z,3031.88
2022-08-21T11:18:35.833Z,2947.50
2022-08-21T11:19:35.925Z,2295.00
2022-08-21T11:20:35.814Z,3037.50
2022-08-21T11:21:35.803Z,3678.75
2022-08-21T11:22:35.843Z,2874.38
2022-08-21T11:23:35.798Z,2677.50
2022-08-21T11:24:35.775Z,2486.25
2022-08-21T11:25:36.787Z,2756.25
2022-08-21T11:26:35.746Z,3009.38
2022-08-21T11:27:35.745Z,2790.00
2022-08-21T11:28:35.838Z,2716.88
2022-08-21T11:29:35.714Z,2671.88
2022-08-21T11:30:35.702Z,2497.50
2022-08-21T11:31:35.705Z,2593.12
2022-08-21T11:32:35.687Z,2761.88
2022-08-21T11:33:35.682Z,3003.75
2022-08-21T11:34:35.689Z,2711.25
2022-08-21T11:35:35.654Z,2565.00
2022-08-21T11:36:35.657Z,2598.75
2022-08-21T11:37:35.633Z,2728.12
2022-08-21T11:38:35.634Z,2728.12
2022-08-21T11:39:35.685Z,2514.38
2022-08-21T11:40:35.611Z,2424.38
2022-08-21T11:41:35.644Z,2536.88
2022-08-21T11:42:35.582Z,2581.88
2022-08-21T11:43:35.587Z,2565.00
2022-08-21T11:44:35.575Z,2683.12
2022-08-21T11:45:35.537Z,2891.25
2022-08-21T11:46:35.531Z,2880.00
2022-08-21T11:47:35.539Z,2525.62
2022-08-21T11:48:35.502Z,2666.25
2022-08-21T11:49:35.501Z,2598.75
2022-08-21T11:50:36.487Z,2801.25
2022-08-21T11:51:35.480Z,2705.62
2022-08-21T11:52:35.570Z,2520.00
2022-08-21T11:53:35.456Z,2548.12
2022-08-21T11:54:35.432Z,2570.62
2022-08-21T11:55:35.443Z,1288.12
2022-08-21T11:56:35.412Z,2722.50
2022-08-21T11:57:35.411Z,652.50
2022-08-21T11:58:35.418Z,753.75
2022-08-21T11:59:40.162Z,877.50
2022-08-21T12:00:36.369Z,658.12
2022-08-21T12:01:35.435Z,618.75
2022-08-21T12:02:35.354Z,551.25
2022-08-21T12:03:35.346Z,511.88
2022-08-21T12:04:35.347Z,534.38
2022-08-21T12:05:35.322Z,528.75
2022-08-21T12:06:35.310Z,528.75
2022-08-21T12:07:35.328Z,495.00
2022-08-21T12:08:35.288Z,506.25
2022-08-21T12:09:35.282Z,466.88
2022-08-21T12:10:35.284Z,410.62
2022-08-21T12:11:35.256Z,399.38
2022-08-21T12:12:35.239Z,416.25
2022-08-21T12:13:40.381Z,444.38
2022-08-21T12:14:36.218Z,466.88
2022-08-21T12:15:35.219Z,483.75
2022-08-21T12:16:35.217Z,495.00
2022-08-21T12:17:35.192Z,483.75
2022-08-21T12:18:35.180Z,461.25
2022-08-21T12:19:35.197Z,450.00
2022-08-21T12:20:35.169Z,1479.38
2022-08-21T12:21:35.167Z,2328.75
2022-08-21T12:22:35.212Z,1535.62
2022-08-21T12:23:35.147Z,675.00
2022-08-21T12:24:35.137Z,1586.25
2022-08-21T12:25:35.113Z,534.38
2022-08-21T12:26:35.136Z,1524.38
2022-08-21T12:27:35.121Z,405.00
2022-08-21T12:28:35.076Z,815.62
2022-08-21T12:29:35.066Z,573.75
2022-08-21T12:30:35.052Z,483.75
2022-08-21T12:31:35.075Z,2238.75
2022-08-21T12:32:35.051Z,2244.38
2022-08-21T12:33:35.029Z,2216.25
2022-08-21T12:34:35.140Z,2143.12
2022-08-21T12:35:35.005Z,2188.12
2022-08-21T12:36:38.759Z,2306.25